createdAt,value
2023-02-18T00:01:24.831Z,98.50
2023-02-18T00:03:52.301Z,98.50
2023-02-18T00:06:22.415Z,98.50
2023-02-18T00:08:50.412Z,98.50
2023-02-18T00:11:19.136Z,98.50
2023-02-18T00:13:53.601Z,98.50
2023-02-18T00:16:20.544Z,98.50
2023-02-18T00:18:47.353Z,98.50
2023-02-18T00:21:14.503Z,98.50
2023-02-18T00:23:43.624Z,98.50
2023-02-18T00:26:15.726Z,98.50
2023-02-18T00:28:43.130Z,98.50
2023-02-18T00:31:14.532Z,98.50
2023-02-18T00:33:41.756Z,98.50
2023-02-18T00:36:12.032Z,98.50
2023-02-18T00:38:38.755Z,98.50
2023-02-18T00:41:05.798Z,98.50
2023-02-18T00:43:32.476Z,98.50
2023-02-18T00:45:59.280Z,98.50
2023-02-18T00:48:26.049Z,98.50
2023-02-18T00:50:52.792Z,98.50
2023-02-18T00:53:19.553Z,98.50
2023-02-18T00:55:49.725Z,98.50
2023-02-18T00:58:16.402Z,98.50
2023-02-18T01:00:43.417Z,98.50
2023-02-18T01:03:10.394Z,98.50
2023-02-18T01:05:38.955Z,98.50
2023-02-18T01:08:07.072Z,98.50
2023-02-18T01:10:35.215Z,98.50
2023-02-18T01:13:04.342Z,98.50
2023-02-18T01:15:31.700Z,98.50
2023-02-18T01:17:58.493Z,98.50
2023-02-18T01:20:26.543Z,98.50
2023-02-18T01:22:53.316Z,98.50
2023-02-18T01:25:20.545Z,98.50
2023-02-18T01:27:47.216Z,98.50
2023-02-18T01:30:16.365Z,98.50
2023-02-18T01:32:43.473Z,98.50
2023-02-18T01:35:16.417Z,98.50
2023-02-18T01:37:43.559Z,98.50
2023-02-18T01:40:13.861Z,98.50
2023-02-18T01:42:40.897Z,98.50
2023-02-18T01:45:35.761Z,98.50
2023-02-18T01:48:04.929Z,98.50
2023-02-18T01:50:35.783Z,98.50
2023-02-18T01:53:03.389Z,98.50
2023-02-18T01:55:30.178Z,98.50
2023-02-18T01:57:56.942Z,98.50
2023-02-18T02:00:23.860Z,98.50
2023-02-18T02:02:52.572Z,98.50
2023-02-18T02:05:21.056Z,98.50
2023-02-18T02:07:50.989Z,98.50
2023-02-18T02:10:18.879Z,98.50
2023-02-18T02:13:22.737Z,98.50
2023-02-18T02:15:51.700Z,98.50
2023-02-18T02:18:31.727Z,98.50
2023-02-18T02:21:44.424Z,98.50
2023-02-18T02:24:32.884Z,98.50
2023-02-18T02:27:19.590Z,98.50
2023-02-18T02:29:55.607Z,98.50
2023-02-18T02:32:47.099Z,98.50
2023-02-18T02:35:22.784Z,98.50
2023-02-18T02:37:55.607Z,98.50
2023-02-18T02:40:40.487Z,98.50
2023-02-18T02:43:20.933Z,98.50
2023-02-18T02:46:06.372Z,98.50
2023-02-18T02:48:51.793Z,98.50
2023-02-18T02:51:30.675Z,98.50
2023-02-18T02:54:11.521Z,98.50
2023-02-18T02:56:38.194Z,98.50
2023-02-18T02:59:08.942Z,98.50
2023-02-18T03:02:09.331Z,98.50
2023-02-18T03:04:58.639Z,98.50
2023-02-18T03:07:38.338Z,98.50
2023-02-18T03:10:15.789Z,98.50
2023-02-18T03:13:14.510Z,98.50
2023-02-18T03:15:57.122Z,98.50
2023-02-18T03:18:40.846Z,98.50
2023-02-18T03:21:13.530Z,98.50
2023-02-18T03:23:49.427Z,98.50
2023-02-18T03:26:19.747Z,98.50
2023-02-18T03:28:48.874Z,98.50
2023-02-18T03:31:21.235Z,98.50
2023-02-18T03:33:57.006Z,98.50
2023-02-18T03:36:24.639Z,98.50
2023-02-18T03:38:59.002Z,98.50
2023-02-18T03:41:25.806Z,98.50
2023-02-18T03:43:55.229Z,98.50
2023-02-18T03:46:22.301Z,98.50
2023-02-18T03:48:49.092Z,98.50
2023-02-18T03:51:15.768Z,98.50
2023-02-18T03:53:42.485Z,98.50
2023-02-18T03:56:09.494Z,98.50
2023-02-18T03:58:36.364Z,98.50
2023-02-18T04:01:03.214Z,98.50
2023-02-18T04:03:29.900Z,98.50
2023-02-18T04:05:57.101Z,98.50
2023-02-18T04:08:24.233Z,98.50
2023-02-18T04:10:51.057Z,98.50
2023-02-18T04:13:18.019Z,98.50
2023-02-18T04:15:45.600Z,98.50
2023-02-18T04:18:12.523Z,98.50
2023-02-18T04:20:39.193Z,98.50
2023-02-18T04:23:05.858Z,98.50
2023-02-18T04:25:33.360Z,98.50
2023-02-18T04:28:00.088Z,98.50
2023-02-18T04:30:27.059Z,98.50
2023-02-18T04:32:53.848Z,98.50
2023-02-18T04:35:20.518Z,98.50
2023-02-18T04:37:47.251Z,98.50
2023-02-18T04:40:14.479Z,98.50
2023-02-18T04:42:41.242Z,98.50
2023-02-18T04:45:08.444Z,98.50
2023-02-18T04:47:35.129Z,98.50
2023-02-18T04:50:01.825Z,98.50
2023-02-18T04:52:28.528Z,98.50
2023-02-18T04:54:55.259Z,98.50
2023-02-18T04:57:22.027Z,98.50
2023-02-18T04:59:48.849Z,98.50
2023-02-18T05:02:15.498Z,98.50
2023-02-18T05:04:42.254Z,98.50
2023-02-18T05:07:08.972Z,98.50
2023-02-18T05:09:35.769Z,98.50
2023-02-18T05:12:02.463Z,98.50
2023-02-18T05:14:29.094Z,98.50
2023-02-18T05:16:55.792Z,98.50
2023-02-18T05:19:22.495Z,98.50
2023-02-18T05:21:49.162Z,98.50
2023-02-18T05:24:15.830Z,98.50
2023-02-18T05:26:42.546Z,98.50
2023-02-18T05:29:09.217Z,98.50
2023-02-18T05:31:36.025Z,98.50
2023-02-18T05:34:02.725Z,98.50
2023-02-18T05:36:29.471Z,98.50
2023-02-18T05:38:56.133Z,98.50
2023-02-18T05:41:22.837Z,98.50
2023-02-18T05:44:08.032Z,98.50
2023-02-18T05:46:34.792Z,98.50
2023-02-18T05:49:01.619Z,98.50
2023-02-18T05:51:28.343Z,98.50
2023-02-18T05:53:55.669Z,98.50
2023-02-18T05:56:22.592Z,98.50
2023-02-18T05:58:49.354Z,98.50
2023-02-18T06:01:16.045Z,98.50
2023-02-18T06:03:42.763Z,98.50
2023-02-18T06:06:09.854Z,98.50
2023-02-18T06:08:36.807Z,98.50
2023-02-18T06:11:03.824Z,98.50
2023-02-18T06:13:30.731Z,98.50
2023-02-18T06:15:57.559Z,98.50
2023-02-18T06:18:25.186Z,98.50
2023-02-18T06:20:51.850Z,98.50
2023-02-18T06:23:18.723Z,98.50
2023-02-18T06:25:45.450Z,98.50
2023-02-18T06:28:12.079Z,98.50
2023-02-18T06:30:38.776Z,98.50
2023-02-18T06:33:05.513Z,98.50
2023-02-18T06:35:32.259Z,98.50
2023-02-18T06:37:59.125Z,98.50
2023-02-18T06:40:25.782Z,98.50
2023-02-18T06:42:52.421Z,98.50
2023-02-18T06:45:19.511Z,98.50
2023-02-18T06:47:46.255Z,98.50
2023-02-18T06:50:13.421Z,98.50
2023-02-18T06:52:40.186Z,98.50
2023-02-18T06:55:08.003Z,98.50
2023-02-18T06:57:35.190Z,98.50
2023-02-18T07:00:01.969Z,98.50
2023-02-18T07:02:28.622Z,98.50
2023-02-18T07:04:55.350Z,98.50
2023-02-18T07:07:22.220Z,98.50
2023-02-18T07:09:48.884Z,98.50
2023-02-18T07:12:15.567Z,98.50
2023-02-18T07:14:42.224Z,98.50
2023-02-18T07:17:08.909Z,98.50
2023-02-18T07:19:35.549Z,98.50
2023-02-18T07:22:02.214Z,98.50
2023-02-18T07:24:28.850Z,98.50
2023-02-18T07:26:55.511Z,98.50
2023-02-18T07:29:22.201Z,98.50
2023-02-18T07:31:48.983Z,98.50
2023-02-18T07:34:15.712Z,98.50
2023-02-18T07:36:42.524Z,98.50
2023-02-18T07:39:09.202Z,98.50
2023-02-18T07:41:35.957Z,98.50
2023-02-18T07:44:02.625Z,98.50
2023-02-18T07:46:29.450Z,98.50
2023-02-18T07:48:57.590Z,98.50
2023-02-18T07:51:24.269Z,98.50
2023-02-18T07:53:51.344Z,98.50
2023-02-18T07:56:18.688Z,98.50
2023-02-18T07:58:45.345Z,98.50
2023-02-18T08:01:14.986Z,98.50
2023-02-18T08:03:41.920Z,98.50
2023-02-18T08:06:09.020Z,98.50
2023-02-18T08:08:37.084Z,98.50
2023-02-18T08:11:18.116Z,98.50
2023-02-18T08:13:47.214Z,98.50
2023-02-18T08:16:14.708Z,98.50
2023-02-18T08:18:41.525Z,98.50
2023-02-18T08:21:08.380Z,98.50
2023-02-18T08:23:35.098Z,98.50
2023-02-18T08:26:02.786Z,98.50
2023-02-18T08:28:29.473Z,98.50
2023-02-18T08:30:56.209Z,98.50
2023-02-18T08:33:23.784Z,98.50
2023-02-18T08:35:52.464Z,98.50
2023-02-18T08:38:19.680Z,98.50
2023-02-18T08:40:46.690Z,98.50
2023-02-18T08:43:14.580Z,98.50
2023-02-18T08:45:42.759Z,98.50
2023-02-18T08:48:17.478Z,98.50
2023-02-18T08:50:47.064Z,98.50
2023-02-18T08:53:13.750Z,98.50
2023-02-18T08:55:41.231Z,98.50
2023-02-18T08:58:07.934Z,98.50
2023-02-18T09:00:35.168Z,98.50
2023-02-18T09:03:01.891Z,98.50
2023-02-18T09:05:28.618Z,98.50
2023-02-18T09:07:55.544Z,98.50
2023-02-18T09:10:22.802Z,98.50
2023-02-18T09:12:49.549Z,98.50
2023-02-18T09:15:16.292Z,98.50
2023-02-18T09:17:43.106Z,98.50
2023-02-18T09:20:10.173Z,98.50
2023-02-18T09:22:36.817Z,98.50
2023-02-18T09:25:04.340Z,98.50
2023-02-18T09:27:31.035Z,98.50
2023-02-18T09:29:57.691Z,98.50
2023-02-18T09:32:34.203Z,98.50
2023-02-18T09:35:02.982Z,98.50
2023-02-18T09:37:29.879Z,98.50
2023-02-18T09:39:56.576Z,98.50
2023-02-18T09:42:32.229Z,98.50
2023-02-18T09:45:03.106Z,98.50
2023-02-18T09:47:37.101Z,98.50
2023-02-18T09:50:21.500Z,98.50
2023-02-18T09:52:48.418Z,98.50
2023-02-18T09:55:38.929Z,98.50
2023-02-18T09:58:15.324Z,98.50
2023-02-18T10:00:52.734Z,98.50
2023-02-18T10:03:24.645Z,98.50
2023-02-18T10:06:10.126Z,98.50
2023-02-18T10:08:46.005Z,98.50
2023-02-18T10:11:21.867Z,98.50
2023-02-18T10:13:48.521Z,98.50
2023-02-18T10:16:21.916Z,98.50
2023-02-18T10:18:53.433Z,98.50
2023-02-18T10:21:26.474Z,98.50
2023-02-18T10:24:09.132Z,98.50
2023-02-18T10:26:38.357Z,98.50
2023-02-18T10:29:20.059Z,98.50
2023-02-18T10:32:26.983Z,98.50
2023-02-18T10:35:06.967Z,98.30
2023-02-18T10:38:01.478Z,98.30
2023-02-18T10:40:46.167Z,98.20
2023-02-18T10:43:21.424Z,98.30
2023-02-18T10:45:53.277Z,97.70
2023-02-18T10:48:48.135Z,97.90
2023-02-18T10:51:31.913Z,97.80
2023-02-18T10:53:59.990Z,97.90
2023-02-18T10:56:55.817Z,96.80
2023-02-18T10:59:25.312Z,96.20
2023-02-18T11:02:02.466Z,96.10
2023-02-18T11:04:37.909Z,95.70
2023-02-18T11:07:12.150Z,95.20
2023-02-18T11:09:50.141Z,94.40
2023-02-18T11:12:35.233Z,93.60
2023-02-18T11:15:18.088Z,93.20
2023-02-18T11:18:26.805Z,92.30
2023-02-18T11:21:00.620Z,92.50
2023-02-18T11:23:27.790Z,92.60
2023-02-18T11:26:11.532Z,92.40
2023-02-18T11:28:45.172Z,92.90
2023-02-18T11:31:18.153Z,93.10
2023-02-18T11:33:50.464Z,92.70
2023-02-18T11:36:25.057Z,92.80
2023-02-18T11:39:00.658Z,92.00
2023-02-18T11:41:44.011Z,92.00
2023-02-18T11:44:36.261Z,92.40
2023-02-18T11:47:13.233Z,92.10
2023-02-18T11:49:42.317Z,92.00
2023-02-18T11:52:34.626Z,92.40
2023-02-18T11:55:22.095Z,92.60
2023-02-18T11:58:10.586Z,91.90
2023-02-18T12:00:48.751Z,92.10
2023-02-18T12:03:48.755Z,91.90
2023-02-18T12:06:25.066Z,92.20
2023-02-18T12:08:56.912Z,92.60
2023-02-18T12:11:31.694Z,92.00
2023-02-18T12:13:59.324Z,91.90
2023-02-18T12:16:51.146Z,92.10
2023-02-18T12:19:27.205Z,92.00
2023-02-18T12:22:20.506Z,91.00
2023-02-18T12:24:47.118Z,90.20
2023-02-18T12:27:34.264Z,90.50
2023-02-18T12:30:09.736Z,90.20
2023-02-18T12:33:27.507Z,90.80
2023-02-18T12:36:25.240Z,91.20
2023-02-18T12:39:11.431Z,91.30
2023-02-18T12:42:13.640Z,91.40
2023-02-18T12:44:45.627Z,91.70
2023-02-18T12:47:51.747Z,91.80
2023-02-18T12:50:43.137Z,91.10
2023-02-18T12:53:29.570Z,91.40
2023-02-18T12:56:11.491Z,91.60
2023-02-18T12:59:07.525Z,91.30
2023-02-18T13:02:06.930Z,91.50
2023-02-18T13:04:40.163Z,91.70
2023-02-18T13:07:12.813Z,91.50
2023-02-18T13:09:56.476Z,91.70
2023-02-18T13:12:35.498Z,91.70
2023-02-18T13:15:13.518Z,91.50
2023-02-18T13:17:42.351Z,91.20
2023-02-18T13:20:33.372Z,91.00
2023-02-18T13:23:01.483Z,91.90
2023-02-18T13:25:28.638Z,92.10
2023-02-18T13:28:17.901Z,92.50
2023-02-18T13:31:34.261Z,93.00
2023-02-18T13:34:27.592Z,92.70
2023-02-18T13:37:07.175Z,92.90
2023-02-18T13:39:35.534Z,92.80
2023-02-18T13:42:25.107Z,93.00
2023-02-18T13:45:03.511Z,93.30
2023-02-18T13:47:43.212Z,93.50
2023-02-18T13:50:27.001Z,93.40
2023-02-18T13:53:08.778Z,93.70
2023-02-18T13:55:51.443Z,93.50
2023-02-18T13:58:42.425Z,93.40
2023-02-18T14:01:11.945Z,93.20
2023-02-18T14:03:45.054Z,93.00
2023-02-18T14:06:24.915Z,92.50
2023-02-18T14:09:01.995Z,92.10
2023-02-18T14:11:39.248Z,92.60
2023-02-18T14:14:25.607Z,92.00
2023-02-18T14:17:20.272Z,91.90
2023-02-18T14:19:59.632Z,92.00
2023-02-18T14:22:28.294Z,92.70
2023-02-18T14:25:08.658Z,92.10
2023-02-18T14:27:36.582Z,92.10
2023-02-18T14:30:16.536Z,91.80
2023-02-18T14:32:44.935Z,92.10
2023-02-18T14:35:35.265Z,92.20
2023-02-18T14:38:12.252Z,91.60
2023-02-18T14:40:48.738Z,92.00
2023-02-18T14:43:39.973Z,92.30
2023-02-18T14:46:35.828Z,92.40
2023-02-18T14:49:28.675Z,92.40
2023-02-18T14:51:57.989Z,92.40
2023-02-18T14:54:26.904Z,92.40
2023-02-18T14:57:05.169Z,92.50
2023-02-18T14:59:41.354Z,92.80
2023-02-18T15:02:24.962Z,92.70
2023-02-18T15:04:51.607Z,93.10
2023-02-18T15:07:21.153Z,93.00
2023-02-18T15:09:54.968Z,93.10
2023-02-18T15:12:25.735Z,93.20
2023-02-18T15:14:54.620Z,93.50
2023-02-18T15:17:24.760Z,93.70
2023-02-18T15:19:57.277Z,94.20
2023-02-18T15:22:26.452Z,94.20
2023-02-18T15:24:55.048Z,94.30
2023-02-18T15:27:25.238Z,94.20
2023-02-18T15:29:56.958Z,94.60
2023-02-18T15:32:28.807Z,94.80
2023-02-18T15:35:01.856Z,94.70
2023-02-18T15:37:30.017Z,95.00
2023-02-18T15:39:56.845Z,95.00
2023-02-18T15:42:31.112Z,95.20
2023-02-18T15:45:04.308Z,95.40
2023-02-18T15:47:32.017Z,95.20
2023-02-18T15:50:01.597Z,95.20
2023-02-18T15:52:31.870Z,95.10
2023-02-18T15:55:07.294Z,95.30
2023-02-18T15:57:37.306Z,95.10
2023-02-18T16:00:15.588Z,95.30
2023-02-18T16:03:09.346Z,95.40
2023-02-18T16:05:38.619Z,95.60
2023-02-18T16:08:24.712Z,95.70
2023-02-18T16:11:02.696Z,95.10
2023-02-18T16:13:31.296Z,95.10
2023-02-18T16:16:00.869Z,95.10
2023-02-18T16:18:41.403Z,94.90
2023-02-18T16:21:20.566Z,94.80
2023-02-18T16:24:01.877Z,95.00
2023-02-18T16:26:37.694Z,95.10
2023-02-18T16:29:26.190Z,95.60
2023-02-18T16:31:53.168Z,95.80
2023-02-18T16:34:20.197Z,95.70
2023-02-18T16:37:05.761Z,95.90
2023-02-18T16:39:34.957Z,96.10
2023-02-18T16:42:02.037Z,96.20
2023-02-18T16:44:28.708Z,96.10
2023-02-18T16:46:56.648Z,96.30
2023-02-18T16:49:23.616Z,96.20
2023-02-18T16:51:50.419Z,96.50
2023-02-18T16:54:17.561Z,96.60
2023-02-18T16:56:44.594Z,96.80
2023-02-18T16:59:11.259Z,96.80
2023-02-18T17:01:44.738Z,96.80
2023-02-18T17:04:14.222Z,96.80
2023-02-18T17:06:41.395Z,96.90
2023-02-18T17:09:17.080Z,97.10
2023-02-18T17:11:51.833Z,97.20
2023-02-18T17:14:20.710Z,97.40
2023-02-18T17:16:48.498Z,97.70
2023-02-18T17:19:16.161Z,97.50
2023-02-18T17:21:43.204Z,97.50
2023-02-18T17:24:14.652Z,97.50
2023-02-18T17:26:41.597Z,97.30
2023-02-18T17:29:08.567Z,97.60
2023-02-18T17:31:38.014Z,97.70
2023-02-18T17:34:07.954Z,97.40
2023-02-18T17:36:34.685Z,97.50
2023-02-18T17:39:02.851Z,97.30
2023-02-18T17:41:29.612Z,97.20
2023-02-18T17:43:56.276Z,97.20
2023-02-18T17:46:23.019Z,97.10
2023-02-18T17:48:49.759Z,96.80
2023-02-18T17:51:25.310Z,96.50
2023-02-18T17:53:52.972Z,96.20
2023-02-18T17:56:19.861Z,95.60
2023-02-18T17:58:47.082Z,95.50
2023-02-18T18:01:13.817Z,95.60
2023-02-18T18:03:40.609Z,95.50
2023-02-18T18:06:16.447Z,95.90
2023-02-18T18:08:43.267Z,96.30
2023-02-18T18:11:17.964Z,96.20
2023-02-18T18:13:46.339Z,96.40
2023-02-18T18:16:15.930Z,96.60
2023-02-18T18:18:43.192Z,96.60
2023-02-18T18:21:36.561Z,96.40
2023-02-18T18:24:03.715Z,96.50
2023-02-18T18:26:30.691Z,96.30
2023-02-18T18:28:57.497Z,96.40
2023-02-18T18:31:24.533Z,96.50
2023-02-18T18:33:53.464Z,96.30
2023-02-18T18:36:23.954Z,96.40
2023-02-18T18:38:51.000Z,96.50
2023-02-18T18:41:20.713Z,96.60
2023-02-18T18:43:47.805Z,96.70
2023-02-18T18:46:14.873Z,96.80
2023-02-18T18:48:41.882Z,96.70
2023-02-18T18:51:15.965Z,96.90
2023-02-18T18:53:42.957Z,97.20
2023-02-18T18:56:12.338Z,97.10
2023-02-18T18:58:39.159Z,97.10
2023-02-18T19:01:12.435Z,97.10
2023-02-18T19:03:41.421Z,97.30
2023-02-18T19:06:11.472Z,97.00
2023-02-18T19:08:38.135Z,97.00
2023-02-18T19:11:05.211Z,97.30
2023-02-18T19:13:33.580Z,97.30
2023-02-18T19:16:04.343Z,97.30
2023-02-18T19:18:33.572Z,97.50
2023-02-18T19:21:04.779Z,97.50
2023-02-18T19:23:32.476Z,97.40
2023-02-18T19:25:59.246Z,97.80
2023-02-18T19:28:26.462Z,97.80
2023-02-18T19:30:53.143Z,97.80
2023-02-18T19:33:19.841Z,97.60
2023-02-18T19:35:46.580Z,97.60
2023-02-18T19:38:15.942Z,97.80
2023-02-18T19:40:43.868Z,97.60
2023-02-18T19:43:12.135Z,97.50
2023-02-18T19:45:44.241Z,97.70
2023-02-18T19:48:12.316Z,97.40
2023-02-18T19:50:40.706Z,97.10
2023-02-18T19:53:07.659Z,97.30
2023-02-18T19:55:34.353Z,97.20
2023-02-18T19:58:01.019Z,97.00
2023-02-18T20:00:27.762Z,97.00
2023-02-18T20:02:54.508Z,97.10
2023-02-18T20:05:21.452Z,97.00
2023-02-18T20:07:48.250Z,96.90
2023-02-18T20:10:17.952Z,96.90
2023-02-18T20:12:44.607Z,96.90
2023-02-18T20:15:11.471Z,97.00
2023-02-18T20:17:39.411Z,96.80
2023-02-18T20:20:07.206Z,96.80
2023-02-18T20:22:34.565Z,96.80
2023-02-18T20:25:01.308Z,96.70
2023-02-18T20:27:27.988Z,96.90
2023-02-18T20:29:54.690Z,97.20
2023-02-18T20:32:21.599Z,97.30
2023-02-18T20:34:48.267Z,97.40
2023-02-18T20:37:15.015Z,97.40
2023-02-18T20:39:41.766Z,97.40
2023-02-18T20:42:16.425Z,97.50
2023-02-18T20:44:44.250Z,97.60
2023-02-18T20:47:13.384Z,97.70
2023-02-18T20:49:40.607Z,97.80
2023-02-18T20:52:08.322Z,97.80
2023-02-18T20:54:35.141Z,97.80
2023-02-18T20:57:02.229Z,97.80
2023-02-18T20:59:29.815Z,97.50
2023-02-18T21:01:57.265Z,97.50
2023-02-18T21:04:23.989Z,97.40
2023-02-18T21:06:50.791Z,97.20
2023-02-18T21:09:18.770Z,97.30
2023-02-18T21:11:46.143Z,97.20
2023-02-18T21:14:12.859Z,97.30
2023-02-18T21:16:39.844Z,97.20
2023-02-18T21:19:08.812Z,97.20
2023-02-18T21:21:35.900Z,96.90
2023-02-18T21:24:03.397Z,97.00
2023-02-18T21:26:30.358Z,97.00
2023-02-18T21:29:00.804Z,96.80
2023-02-18T21:31:33.435Z,96.60
2023-02-18T21:34:00.714Z,96.70
2023-02-18T21:36:27.951Z,96.70
2023-02-18T21:38:56.437Z,96.60
2023-02-18T21:41:23.810Z,96.30
2023-02-18T21:43:51.081Z,96.50
2023-02-18T21:46:19.748Z,96.60
2023-02-18T21:49:05.057Z,96.70
2023-02-18T21:51:55.191Z,96.60
2023-02-18T21:54:28.134Z,96.90
2023-02-18T21:56:55.852Z,97.10
2023-02-18T21:59:26.232Z,97.30
2023-02-18T22:01:53.767Z,97.20
2023-02-18T22:04:21.128Z,97.30
2023-02-18T22:06:48.198Z,97.40
2023-02-18T22:09:14.993Z,97.50
2023-02-18T22:11:43.065Z,97.50
2023-02-18T22:14:14.451Z,97.60
2023-02-18T22:16:41.567Z,97.70
2023-02-18T22:19:10.300Z,97.70
2023-02-18T22:21:37.086Z,97.80
2023-02-18T22:24:08.201Z,97.90
2023-02-18T22:26:35.239Z,97.90
2023-02-18T22:29:02.643Z,98.00
2023-02-18T22:31:30.858Z,98.20
2023-02-18T22:33:59.085Z,98.30
2023-02-18T22:36:27.373Z,98.30
2023-02-18T22:38:54.489Z,98.50
2023-02-18T22:41:22.335Z,98.50
2023-02-18T22:43:52.824Z,98.50
2023-02-18T22:46:19.539Z,98.50
2023-02-18T22:48:46.201Z,98.50
2023-02-18T22:51:43.447Z,98.50
2023-02-18T22:54:13.042Z,98.50
2023-02-18T22:56:39.908Z,98.50
2023-02-18T22:59:06.895Z,98.50
2023-02-18T23:01:41.742Z,98.50
2023-02-18T23:04:11.925Z,98.50
2023-02-18T23:06:40.666Z,98.50
2023-02-18T23:09:08.827Z,98.50
2023-02-18T23:11:35.683Z,98.50
2023-02-18T23:14:21.167Z,98.50
2023-02-18T23:17:12.854Z,98.50
2023-02-18T23:19:43.836Z,98.50
2023-02-18T23:22:12.744Z,98.50
2023-02-18T23:24:41.747Z,98.50
2023-02-18T23:27:10.204Z,98.50
2023-02-18T23:29:38.125Z,98.50
2023-02-18T23:32:05.930Z,98.50
2023-02-18T23:34:32.784Z,98.50
2023-02-18T23:36:59.507Z,98.50
2023-02-18T23:39:26.747Z,98.50
2023-02-18T23:41:53.441Z,98.50
2023-02-18T23:44:22.042Z,98.50
2023-02-18T23:46:49.150Z,98.50
2023-02-18T23:49:17.872Z,98.50
2023-02-18T23:51:44.616Z,98.50
2023-02-18T23:54:11.564Z,98.50
2023-02-18T23:56:38.887Z,98.50
2023-02-18T23:59:06.017Z,98.50
